Time;durP1;ratioP1;P1;durP2;ratioP2;P2;SDS_P1;SDS_P2;PMS_P1;PMS_P2;Temp;Humidity;BMP_temperature;BMP_pressure;BME280_temperature;BME280_humidity;BME280_pressure;Samples;Min_cycle;Max_cycle;Signal;HPM_P1;HPM_P2
2023/05/11 03:02:32;;;;;;;47.17;44.63;;;11.10;99.90;;;;;;4989482;23;20615;-81
2023/05/11 03:04:58;;;;;;;55.63;52.77;;;11.10;99.90;;;;;;4975004;28;20263;-80
2023/05/11 03:07:24;;;;;;;51.10;48.67;;;11.10;99.90;;;;;;4976718;28;20219;-81
2023/05/11 03:09:51;;;;;;;52.83;50.23;;;11.00;99.90;;;;;;4993808;28;20652;-79
2023/05/11 03:12:16;;;;;;;46.37;43.73;;;11.00;99.90;;;;;;4964654;28;20248;-81
2023/05/11 03:14:43;;;;;;;27.93;26.57;;;11.00;99.90;;;;;;4959510;28;20189;-79
2023/05/11 03:17:12;;;;;;;23.10;22.00;;;11.10;99.90;;;;;;4968768;28;20185;-79
2023/05/11 03:19:40;;;;;;;25.17;23.67;;;11.00;99.90;;;;;;4961308;28;20218;-79
2023/05/11 03:22:07;;;;;;;25.90;24.63;;;11.10;99.90;;;;;;4963532;29;20517;-79
2023/05/11 03:24:33;;;;;;;28.23;26.90;;;11.10;99.90;;;;;;4966829;28;20189;-80
2023/05/11 03:27:00;;;;;;;26.43;25.17;;;11.10;99.90;;;;;;4975818;28;20205;-80
2023/05/11 03:29:27;;;;;;;27.17;25.73;;;11.10;99.90;;;;;;4975729;28;20193;-82
2023/05/11 03:31:54;;;;;;;29.10;27.77;;;11.10;99.90;;;;;;4973473;28;20210;-78
2023/05/11 03:34:20;;;;;;;28.47;27.00;;;11.10;99.90;;;;;;4975099;28;20189;-78
2023/05/11 03:36:48;;;;;;;22.33;21.13;;;11.10;99.90;;;;;;4984060;28;20272;-82
2023/05/11 03:39:15;;;;;;;22.33;21.30;;;11.10;99.90;;;;;;4978743;28;20193;-79
2023/05/11 03:41:44;;;;;;;19.27;18.37;;;11.20;99.90;;;;;;4979863;28;20205;-80
2023/05/11 03:44:11;;;;;;;12.03;11.33;;;11.10;99.90;;;;;;4982337;28;20200;-81
2023/05/11 03:46:39;;;;;;;7.50;7.13;;;11.10;99.90;;;;;;4979693;28;20214;-80
2023/05/11 03:49:06;;;;;;;7.90;7.50;;;11.10;99.90;;;;;;4981422;28;20188;-81
2023/05/11 03:51:35;;;;;;;6.13;5.57;;;11.10;99.90;;;;;;4979877;28;20649;-79
2023/05/11 03:54:01;;;;;;;6.70;6.30;;;11.10;99.90;;;;;;4970275;29;20217;-78
2023/05/11 03:56:26;;;;;;;10.70;10.30;;;11.20;99.90;;;;;;4977620;29;20249;-79
2023/05/11 03:58:53;;;;;;;13.23;12.53;;;11.20;99.90;;;;;;4977007;28;20178;-79
2023/05/11 04:01:19;;;;;;;17.30;16.40;;;11.20;99.90;;;;;;4968269;28;20237;-80
2023/05/11 04:03:52;;;;;;;23.77;22.33;;;11.20;99.90;;;;;;4964689;29;20178;-78
2023/05/11 04:06:18;;;;;;;27.57;26.27;;;11.20;99.90;;;;;;4960671;29;20249;-79
2023/05/11 04:08:44;;;;;;;25.17;23.77;;;11.20;99.90;;;;;;4960588;29;20228;-80
2023/05/11 04:11:10;;;;;;;132.43;125.70;;;11.20;99.90;;;;;;4958432;28;20217;-81
2023/05/11 04:13:36;;;;;;;31.80;30.00;;;11.20;99.90;;;;;;4958552;29;20185;-81
2023/05/11 04:16:01;;;;;;;52.60;50.00;;;11.20;99.90;;;;;;4958841;28;20272;-80
2023/05/11 04:18:28;;;;;;;53.77;50.93;;;11.20;99.90;;;;;;4959626;28;20249;-80
2023/05/11 04:20:54;;;;;;;57.07;54.07;;;11.20;99.90;;;;;;4958996;28;20579;-81
2023/05/11 04:23:20;;;;;;;53.93;51.13;;;11.20;99.90;;;;;;4961298;28;20190;-80
2023/05/11 04:25:46;;;;;;;51.13;48.33;;;11.20;99.90;;;;;;4960365;28;20245;-81
2023/05/11 04:28:12;;;;;;;39.57;37.47;;;11.20;99.90;;;;;;4957874;28;20220;-80
2023/05/11 04:30:37;;;;;;;25.80;24.33;;;11.20;99.90;;;;;;4959241;28;20612;-81
2023/05/11 04:33:04;;;;;;;15.50;14.60;;;11.30;99.90;;;;;;4959917;28;20244;-80
2023/05/11 04:35:29;;;;;;;13.40;12.70;;;11.30;99.90;;;;;;4959886;28;20197;-80
2023/05/11 04:37:55;;;;;;;38.77;36.87;;;11.40;99.90;;;;;;4958404;28;20188;-79
2023/05/11 04:40:21;;;;;;;59.77;56.73;;;11.30;99.90;;;;;;4958450;28;20185;-71
2023/05/11 04:42:47;;;;;;;64.87;61.13;;;11.40;99.90;;;;;;4954582;28;20182;-73
2023/05/11 04:45:12;;;;;;;62.47;59.00;;;11.40;99.90;;;;;;4953648;28;20276;-73
2023/05/11 04:47:38;;;;;;;68.10;64.63;;;11.40;99.90;;;;;;4953278;29;20209;-73
2023/05/11 04:50:05;;;;;;;75.10;71.43;;;11.50;99.90;;;;;;4953294;29;20237;-73
2023/05/11 04:52:30;;;;;;;79.57;75.57;;;11.50;99.90;;;;;;4954436;28;20748;-73
2023/05/11 04:54:56;;;;;;;87.07;82.40;;;11.50;99.90;;;;;;4953473;29;20272;-73
2023/05/11 04:57:22;;;;;;;108.97;103.60;;;11.60;99.90;;;;;;4954192;29;20202;-73
2023/05/11 04:59:48;;;;;;;105.93;100.57;;;11.60;99.90;;;;;;4954363;29;20390;-73
2023/05/11 05:02:14;;;;;;;95.90;91.07;;;11.60;99.90;;;;;;4953149;28;20760;-73
2023/05/11 05:04:39;;;;;;;34.70;32.60;;;11.60;99.90;;;;;;4954461;29;20185;-72
2023/05/11 05:07:06;;;;;;;15.70;15.00;;;11.60;99.90;;;;;;4954004;29;20216;-72
2023/05/11 05:09:32;;;;;;;13.70;12.90;;;11.60;99.90;;;;;;4952975;29;20178;-72
2023/05/11 05:11:57;;;;;;;20.43;19.33;;;11.60;99.90;;;;;;4953946;28;20198;-72
2023/05/11 05:14:23;;;;;;;19.53;18.23;;;11.60;99.90;;;;;;4952874;29;20201;-72
2023/05/11 05:16:49;;;;;;;50.97;48.33;;;11.70;99.90;;;;;;4952697;29;20610;-72
2023/05/11 05:19:15;;;;;;;93.80;89.00;;;11.70;99.90;;;;;;4954577;29;20205;-72
2023/05/11 05:21:41;;;;;;;105.23;99.60;;;11.70;99.90;;;;;;4952603;28;20208;-72
2023/05/11 05:24:10;;;;;;;108.90;103.37;;;11.70;99.90;;;;;;4953797;29;20248;-73
2023/05/11 05:26:35;;;;;;;116.93;110.60;;;11.70;99.90;;;;;;4953888;28;20190;-74
2023/05/11 05:29:01;;;;;;;90.73;85.73;;;11.80;99.90;;;;;;4954518;29;20325;-77
2023/05/11 05:31:27;;;;;;;91.50;86.97;;;11.80;99.90;;;;;;4954344;28;20208;-78
2023/05/11 05:33:53;;;;;;;92.10;87.60;;;11.80;99.90;;;;;;4953011;28;20181;-78
2023/05/11 05:36:18;;;;;;;115.40;109.63;;;11.80;99.90;;;;;;4953530;29;20256;-78
2023/05/11 05:38:44;;;;;;;116.63;110.57;;;11.90;99.90;;;;;;4953262;29;20286;-78
2023/05/11 05:41:10;;;;;;;91.87;87.27;;;11.90;99.90;;;;;;4953834;28;20682;-79
2023/05/11 05:43:36;;;;;;;111.23;105.47;;;12.00;99.90;;;;;;4954212;29;20705;-79
2023/05/11 05:46:01;;;;;;;115.10;109.37;;;12.10;99.90;;;;;;4953803;29;20200;-79
2023/05/11 05:48:27;;;;;;;128.00;121.33;;;12.10;99.90;;;;;;4952878;29;20696;-79
2023/05/11 05:50:53;;;;;;;123.27;116.90;;;12.10;99.90;;;;;;4955373;28;20212;-78
2023/05/11 05:53:19;;;;;;;116.47;110.57;;;12.10;99.90;;;;;;4954794;29;20217;-79
2023/05/11 05:55:44;;;;;;;118.87;112.77;;;12.20;99.90;;;;;;4953912;29;20178;-78
2023/05/11 05:58:10;;;;;;;105.63;100.10;;;12.20;99.90;;;;;;4953101;29;20193;-78
2023/05/11 06:00:36;;;;;;;71.97;68.30;;;12.30;99.90;;;;;;4954208;28;20214;-78
2023/05/11 06:03:02;;;;;;;15.57;14.77;;;12.30;99.90;;;;;;4955517;28;20185;-76
2023/05/11 06:05:28;;;;;;;6.40;6.10;;;12.30;99.90;;;;;;4952848;29;20186;-79
2023/05/11 06:07:53;;;;;;;7.77;5.23;;;12.40;99.90;;;;;;4953428;29;20220;-79
2023/05/11 06:10:19;;;;;;;5.83;5.43;;;12.40;99.90;;;;;;4954764;28;20280;-78
2023/05/11 06:12:45;;;;;;;5.83;4.97;;;12.50;99.90;;;;;;4953095;29;20186;-78
2023/05/11 06:15:11;;;;;;;6.87;6.23;;;12.50;99.90;;;;;;4954266;29;20247;-78
2023/05/11 06:17:37;;;;;;;6.20;5.60;;;12.60;99.90;;;;;;4952307;28;20189;-78
2023/05/11 06:20:04;;;;;;;14.00;13.30;;;12.70;99.90;;;;;;4952542;29;20646;-78
2023/05/11 06:22:30;;;;;;;22.73;21.53;;;12.70;99.90;;;;;;4954390;28;20210;-79
2023/05/11 06:24:56;;;;;;;25.03;23.83;;;12.80;99.90;;;;;;4953224;29;20555;-77
2023/05/11 06:27:22;;;;;;;45.53;43.20;;;12.70;99.90;;;;;;4953247;28;20221;-79
2023/05/11 06:29:48;;;;;;;44.70;42.43;;;12.60;99.90;;;;;;4954824;29;20182;-78
2023/05/11 06:32:14;;;;;;;45.40;43.10;;;12.60;99.90;;;;;;4953408;28;20224;-78
2023/05/11 06:34:40;;;;;;;34.87;33.17;;;12.60;99.90;;;;;;4955569;28;20182;-78
2023/05/11 06:37:06;;;;;;;15.73;14.93;;;12.70;99.90;;;;;;4954412;28;20602;-80
2023/05/11 06:39:35;;;;;;;10.33;9.80;;;12.70;99.90;;;;;;4955176;29;20182;-79
2023/05/11 06:42:01;;;;;;;30.90;29.33;;;12.80;99.90;;;;;;4955937;28;20216;-79
2023/05/11 06:44:27;;;;;;;16.10;15.13;;;12.90;99.90;;;;;;4961995;28;20189;-78
2023/05/11 06:46:52;;;;;;;6.90;6.50;;;13.00;99.90;;;;;;4969946;29;20229;-79
2023/05/11 06:49:18;;;;;;;6.07;5.63;;;12.90;99.90;;;;;;4971194;29;20188;-78
2023/05/11 06:51:44;;;;;;;8.50;8.10;;;12.90;99.90;;;;;;4965748;28;20412;-77
2023/05/11 06:54:10;;;;;;;7.30;6.93;;;12.90;99.90;;;;;;4967209;29;20276;-77
2023/05/11 06:56:36;;;;;;;5.37;4.97;;;12.90;99.90;;;;;;4971335;28;20213;-80
2023/05/11 06:59:01;;;;;;;5.30;5.00;;;13.00;99.90;;;;;;4970939;28;20178;-79
2023/05/11 07:01:27;;;;;;;4.30;4.10;;;13.00;99.90;;;;;;4972133;28;20705;-79
2023/05/11 07:03:54;;;;;;;5.60;5.20;;;13.20;99.90;;;;;;4962607;29;20189;-78
2023/05/11 07:06:20;;;;;;;5.57;5.27;;;13.10;99.90;;;;;;4959955;29;20177;-79
2023/05/11 07:08:46;;;;;;;5.90;5.40;;;13.00;99.90;;;;;;4961448;29;20692;-79
2023/05/11 07:11:14;;;;;;;7.07;6.73;;;12.90;99.90;;;;;;4963133;28;20202;-77
2023/05/11 07:13:40;;;;;;;7.10;6.43;;;12.80;99.90;;;;;;4960170;28;20181;-78
2023/05/11 07:16:06;;;;;;;6.23;5.83;;;12.90;99.90;;;;;;4958587;28;20701;-77
2023/05/11 07:18:31;;;;;;;8.17;7.67;;;12.90;99.90;;;;;;4957350;28;20200;-77
2023/05/11 07:20:57;;;;;;;8.73;8.23;;;12.80;99.90;;;;;;4955748;28;20241;-77
2023/05/11 07:23:23;;;;;;;7.07;6.33;;;12.80;99.90;;;;;;4958604;29;20248;-79
2023/05/11 07:25:49;;;;;;;6.63;6.23;;;12.90;99.90;;;;;;4957677;29;20185;-79
2023/05/11 07:28:14;;;;;;;5.43;5.03;;;13.00;99.90;;;;;;4958740;29;20275;-78
2023/05/11 07:30:40;;;;;;;5.20;4.70;;;13.00;99.90;;;;;;4958562;28;20647;-79
2023/05/11 07:33:06;;;;;;;8.97;8.23;;;13.00;99.90;;;;;;4958439;29;20650;-77
2023/05/11 07:35:32;;;;;;;8.77;8.13;;;13.00;99.90;;;;;;4954890;28;20237;-78
2023/05/11 07:37:57;;;;;;;7.70;7.10;;;13.10;99.90;;;;;;4955698;29;20256;-77
2023/05/11 07:40:23;;;;;;;6.07;5.50;;;13.10;99.90;;;;;;4954715;28;20705;-77
2023/05/11 07:42:49;;;;;;;7.80;6.37;;;13.10;99.90;;;;;;4954919;29;20185;-77
2023/05/11 07:45:15;;;;;;;6.67;6.17;;;13.10;99.90;;;;;;4955127;29;20276;-77
2023/05/11 07:47:41;;;;;;;7.00;6.50;;;13.20;99.90;;;;;;4954975;29;20301;-78
2023/05/11 07:50:07;;;;;;;6.63;6.23;;;13.30;99.90;;;;;;4955822;28;20656;-79
2023/05/11 07:52:33;;;;;;;6.67;6.23;;;13.30;99.90;;;;;;4957132;28;20178;-79
2023/05/11 07:54:59;;;;;;;6.63;6.17;;;13.40;99.90;;;;;;4958025;28;20288;-78
2023/05/11 07:57:24;;;;;;;6.93;6.53;;;13.50;99.90;;;;;;4957277;29;20186;-79
2023/05/11 07:59:50;;;;;;;6.20;5.80;;;13.60;99.90;;;;;;4957294;28;20708;-78
2023/05/11 08:02:17;;;;;;;6.73;6.33;;;13.70;99.90;;;;;;4956295;28;20371;-76
2023/05/11 08:04:43;;;;;;;7.60;7.00;;;13.90;99.90;;;;;;4956152;29;20200;-79
2023/05/11 08:07:09;;;;;;;10.00;8.93;;;14.00;99.90;;;;;;4956314;29;20576;-78
2023/05/11 08:09:35;;;;;;;14.77;13.87;;;14.10;99.90;;;;;;4956938;29;20190;-78
2023/05/11 08:12:02;;;;;;;18.37;17.43;;;14.10;99.90;;;;;;4956334;28;20202;-80
2023/05/11 08:14:28;;;;;;;12.07;11.47;;;14.00;99.90;;;;;;4956517;28;20547;-79
2023/05/11 08:16:54;;;;;;;16.27;15.37;;;14.00;99.90;;;;;;4956641;29;20189;-78
2023/05/11 08:19:20;;;;;;;21.27;19.97;;;13.90;99.90;;;;;;4956194;28;20353;-77
2023/05/11 08:21:46;;;;;;;11.50;10.77;;;13.80;99.90;;;;;;4955773;28;20197;-78
2023/05/11 08:24:12;;;;;;;8.47;7.97;;;13.60;99.90;;;;;;4955767;29;20185;-78
2023/05/11 08:26:37;;;;;;;7.73;7.33;;;13.60;99.90;;;;;;4958324;29;20619;-79
2023/05/11 08:29:03;;;;;;;10.03;9.43;;;13.40;99.90;;;;;;4961295;29;20220;-78
2023/05/11 08:31:29;;;;;;;6.27;5.67;;;13.40;99.90;;;;;;4973578;28;20197;-79
2023/05/11 08:33:55;;;;;;;7.13;6.50;;;13.40;99.90;;;;;;4964371;28;20185;-79
2023/05/11 08:36:21;;;;;;;16.90;7.20;;;13.60;99.90;;;;;;4962614;29;20559;-80
2023/05/11 08:38:47;;;;;;;5.73;5.23;;;13.60;99.90;;;;;;4955341;29;20190;-78
2023/05/11 08:41:13;;;;;;;6.03;5.43;;;13.60;99.90;;;;;;4955024;28;20252;-78
2023/05/11 08:43:39;;;;;;;5.80;5.30;;;13.60;99.90;;;;;;4955490;29;20713;-78
2023/05/11 08:46:07;;;;;;;5.73;5.20;;;13.70;99.90;;;;;;4954264;28;20642;-77
2023/05/11 08:48:33;;;;;;;6.03;5.57;;;13.80;99.90;;;;;;4955444;28;20341;-80
2023/05/11 08:51:00;;;;;;;6.73;6.13;;;13.80;99.90;;;;;;4956925;28;20256;-78
2023/05/11 08:53:26;;;;;;;7.03;6.47;;;13.80;99.90;;;;;;4956079;29;20182;-78
2023/05/11 08:55:56;;;;;;;7.67;7.27;;;13.80;99.90;;;;;;4959139;28;20188;-79
2023/05/11 08:58:23;;;;;;;6.93;6.53;;;13.70;99.90;;;;;;4955844;28;20189;-78
2023/05/11 09:00:49;;;;;;;6.50;6.00;;;13.60;99.90;;;;;;4955747;28;20304;-78
2023/05/11 09:03:16;;;;;;;5.63;5.23;;;13.50;99.90;;;;;;4955622;29;20193;-78
2023/05/11 09:05:45;;;;;;;6.90;6.30;;;13.60;99.90;;;;;;4955519;28;20212;-78
2023/05/11 09:08:12;;;;;;;9.13;8.53;;;13.60;99.90;;;;;;4954957;28;20222;-78
2023/05/11 09:10:38;;;;;;;23.60;22.43;;;13.70;99.90;;;;;;4955302;28;20674;-78
2023/05/11 09:13:05;;;;;;;6.33;5.93;;;13.80;99.90;;;;;;4955990;29;20209;-79
2023/05/11 09:15:31;;;;;;;5.83;5.40;;;13.80;99.90;;;;;;4956312;28;20190;-79
2023/05/11 09:17:57;;;;;;;5.50;5.20;;;13.90;99.90;;;;;;4954926;29;20192;-79
2023/05/11 09:20:31;;;;;;;5.73;5.43;;;13.90;99.90;;;;;;4957487;28;20598;-80
2023/05/11 09:22:57;;;;;;;6.63;6.10;;;13.90;99.90;;;;;;4967082;28;20190;-79
2023/05/11 09:25:29;;;;;;;7.27;6.80;;;13.90;99.90;;;;;;4961692;28;20228;-79
2023/05/11 09:27:58;;;;;;;8.13;7.50;;;14.00;99.90;;;;;;4961359;29;20205;-80
2023/05/11 09:30:23;;;;;;;9.17;8.57;;;14.10;99.90;;;;;;4958170;28;20174;-80
2023/05/11 09:32:58;;;;;;;16.33;15.53;;;14.00;99.90;;;;;;4958680;28;20244;-80
2023/05/11 09:35:26;;;;;;;13.97;13.23;;;13.80;99.90;;;;;;4956450;29;20316;-80
2023/05/11 09:38:08;;;;;;;9.47;8.90;;;13.80;99.90;;;;;;4956245;28;20286;-79
2023/05/11 09:40:55;;;;;;;9.70;8.83;;;13.80;99.90;;;;;;4959301;28;20209;-79
2023/05/11 09:43:27;;;;;;;9.43;8.93;;;13.80;99.90;;;;;;4968489;28;20208;-80
2023/05/11 09:45:55;;;;;;;11.30;10.63;;;14.00;99.90;;;;;;4966915;29;20197;-79
2023/05/11 09:48:24;;;;;;;10.93;10.33;;;14.10;99.90;;;;;;4970111;28;20224;-79
2023/05/11 09:50:58;;;;;;;10.63;10.03;;;14.20;99.90;;;;;;4971099;28;20287;-78
2023/05/11 09:53:39;;;;;;;10.53;9.93;;;14.20;99.90;;;;;;4972276;28;20187;-79
2023/05/11 09:56:06;;;;;;;10.90;10.20;;;14.30;99.90;;;;;;4972025;28;20186;-79
2023/05/11 09:58:53;;;;;;;7.47;7.07;;;14.40;99.90;;;;;;4969346;29;20196;-80
2023/05/11 10:01:33;;;;;;;10.87;10.07;;;14.40;99.90;;;;;;4957122;28;20313;-80
2023/05/11 10:04:02;;;;;;;9.73;9.27;;;14.20;99.90;;;;;;4956136;29;20189;-80
2023/05/11 10:06:47;;;;;;;13.40;12.70;;;14.20;99.90;;;;;;4955593;28;20197;-80
2023/05/11 10:09:22;;;;;;;10.53;9.83;;;14.10;99.90;;;;;;4955643;29;20189;-80
2023/05/11 10:11:49;;;;;;;10.50;9.97;;;14.00;99.90;;;;;;4961546;28;20206;-80
2023/05/11 10:14:15;;;;;;;21.90;20.70;;;14.00;99.90;;;;;;4962355;29;20268;-82
2023/05/11 10:16:42;;;;;;;29.93;28.53;;;13.90;99.90;;;;;;4961485;29;20185;-81
2023/05/11 10:19:09;;;;;;;18.50;17.60;;;13.80;99.90;;;;;;4956221;28;20596;-81
2023/05/11 10:21:36;;;;;;;10.67;10.17;;;13.90;99.90;;;;;;4958523;28;20202;-82
2023/05/11 10:24:03;;;;;;;13.10;11.97;;;14.00;99.90;;;;;;4957120;28;20600;-81
2023/05/11 10:26:31;;;;;;;13.10;12.20;;;14.10;99.90;;;;;;4956783;28;20269;-82
2023/05/11 10:29:01;;;;;;;27.37;25.47;;;14.10;99.90;;;;;;4959911;29;20184;-82
2023/05/11 10:31:28;;;;;;;30.40;28.50;;;14.10;99.90;;;;;;4958010;28;20268;-82
2023/05/11 10:33:56;;;;;;;23.63;22.13;;;14.20;99.90;;;;;;4956599;29;20182;-81
2023/05/11 10:36:24;;;;;;;25.00;23.33;;;14.40;99.90;;;;;;4956109;29;20666;-81
2023/05/11 10:38:50;;;;;;;22.37;21.17;;;14.40;99.90;;;;;;4956290;28;20185;-81
2023/05/11 10:41:50;;;;;;;15.07;14.37;;;14.60;99.90;;;;;;4966680;28;20216;-80
2023/05/11 10:44:45;;;;;;;8.20;7.50;;;14.50;99.90;;;;;;4973636;29;20189;-80
2023/05/11 10:47:36;;;;;;;6.60;6.27;;;14.50;99.90;;;;;;4961111;28;20235;-80
2023/05/11 10:50:26;;;;;;;4.87;4.57;;;14.50;99.90;;;;;;4956831;29;20400;-81
2023/05/11 10:53:19;;;;;;;5.90;5.50;;;14.50;99.90;;;;;;4956940;29;20265;-82
2023/05/11 10:55:50;;;;;;;4.63;4.43;;;14.50;99.90;;;;;;4908561;29;20210;-81
2023/05/11 10:58:26;;;;;;;9.43;8.97;;;14.40;99.90;;;;;;4956013;29;20268;-82
2023/05/11 11:00:58;;;;;;;8.27;7.77;;;14.40;99.90;;;;;;4956985;28;20228;-82
2023/05/11 11:03:24;;;;;;;4.47;4.27;;;14.40;99.90;;;;;;4956899;29;20209;-82
2023/05/11 11:05:50;;;;;;;11.23;10.70;;;14.20;99.90;;;;;;4956974;29;20178;-81
2023/05/11 11:08:16;;;;;;;5.40;5.00;;;14.40;99.90;;;;;;4956545;29;20768;-81
2023/05/11 11:10:44;;;;;;;5.03;4.63;;;14.50;99.90;;;;;;4965254;28;20197;-80
2023/05/11 11:13:13;;;;;;;6.90;6.50;;;14.60;99.90;;;;;;4973916;29;20196;-82
2023/05/11 11:16:06;;;;;;;6.20;5.73;;;14.70;99.90;;;;;;4974535;28;20174;-81
2023/05/11 11:18:32;;;;;;;5.20;4.90;;;14.80;99.90;;;;;;4961505;28;20193;-82
2023/05/11 11:20:59;;;;;;;4.83;4.53;;;14.80;99.90;;;;;;4958528;28;20205;-82
2023/05/11 11:23:43;;;;;;;5.13;4.83;;;14.90;99.90;;;;;;4958873;28;20194;-82
2023/05/11 11:26:12;;;;;;;5.23;4.93;;;14.90;99.90;;;;;;4958320;29;20237;-82
2023/05/11 11:28:52;;;;;;;4.83;4.47;;;15.00;99.90;;;;;;4956772;28;20210;-82
2023/05/11 11:31:26;;;;;;;7.63;7.23;;;14.90;99.90;;;;;;4958604;28;20292;-81
2023/05/11 11:33:57;;;;;;;7.30;6.93;;;14.70;99.90;;;;;;4959610;28;20556;-80
2023/05/11 11:36:54;;;;;;;7.23;6.73;;;14.60;99.90;;;;;;4959162;29;20240;-82
2023/05/11 11:39:27;;;;;;;5.53;5.13;;;14.50;99.90;;;;;;4960314;29;20185;-81
2023/05/11 11:42:07;;;;;;;5.17;4.87;;;14.70;99.90;;;;;;4959946;28;20213;-80
2023/05/11 11:44:33;;;;;;;5.20;4.80;;;15.00;99.90;;;;;;4963017;28;20186;-81
2023/05/11 11:47:19;;;;;;;5.83;5.53;;;15.20;99.90;;;;;;4960017;29;20257;-81
2023/05/11 11:49:50;;;;;;;6.60;6.23;;;15.20;99.90;;;;;;4960928;28;20193;-81
2023/05/11 11:52:28;;;;;;;9.90;9.40;;;15.40;99.90;;;;;;4960079;28;20205;-82
2023/05/11 11:54:55;;;;;;;7.80;7.40;;;15.30;99.90;;;;;;4963362;29;20188;-82
2023/05/11 11:57:33;;;;;;;6.23;6.03;;;15.30;99.90;;;;;;4964636;28;20185;-82
2023/05/11 12:00:01;;;;;;;10.20;9.70;;;15.40;99.90;;;;;;4961930;29;20193;-82
2023/05/11 12:02:27;;;;;;;8.03;7.60;;;15.50;99.90;;;;;;4961209;28;20244;-83
2023/05/11 12:05:00;;;;;;;21.07;20.13;;;15.80;99.90;;;;;;4960512;28;20193;-81
2023/05/11 12:07:32;;;;;;;23.00;21.87;;;15.70;99.90;;;;;;4960746;28;20210;-83
2023/05/11 12:10:01;;;;;;;26.70;25.33;;;15.70;99.90;;;;;;4961045;28;20559;-81
2023/05/11 12:12:27;;;;;;;18.53;17.63;;;15.80;99.90;;;;;;4961122;28;20209;-81
2023/05/11 12:14:53;;;;;;;14.33;13.70;;;16.00;99.90;;;;;;4959546;29;20189;-82
2023/05/11 12:17:26;;;;;;;5.97;5.50;;;16.10;99.90;;;;;;4959506;29;20212;-82
2023/05/11 12:19:53;;;;;;;9.50;9.10;;;15.80;99.90;;;;;;4959568;28;20273;-82
2023/05/11 12:22:25;;;;;;;5.87;5.67;;;15.70;99.90;;;;;;4959349;28;20227;-81
2023/05/11 12:24:55;;;;;;;11.87;11.23;;;15.70;99.90;;;;;;4959339;28;20200;-82
2023/05/11 12:27:22;;;;;;;25.47;24.17;;;15.70;99.90;;;;;;4958309;28;20245;-81
2023/05/11 12:29:49;;;;;;;15.33;14.60;;;15.80;99.90;;;;;;4961453;28;20192;-80
2023/05/11 12:32:26;;;;;;;7.63;7.20;;;15.90;99.90;;;;;;4969889;28;20194;-79
2023/05/11 12:35:02;;;;;;;11.07;10.43;;;16.00;99.90;;;;;;4971808;29;20318;-81
2023/05/11 12:37:30;;;;;;;18.27;16.53;;;16.00;99.90;;;;;;4972515;28;20188;-82
2023/05/11 12:39:57;;;;;;;17.00;14.53;;;16.20;99.90;;;;;;4976230;28;20272;-81
2023/05/11 12:42:23;;;;;;;6.73;6.10;;;16.40;99.90;;;;;;4976582;28;20225;-82
2023/05/11 12:44:49;;;;;;;5.90;5.57;;;16.50;99.90;;;;;;4975860;29;20181;-81
2023/05/11 12:47:15;;;;;;;3.17;2.97;;;16.40;99.90;;;;;;4976006;28;20285;-81
2023/05/11 12:49:42;;;;;;;4.03;3.70;;;16.40;99.90;;;;;;4971773;28;20193;-80
2023/05/11 12:52:09;;;;;;;3.70;3.50;;;16.50;99.90;;;;;;4966996;28;20612;-81
2023/05/11 12:54:42;;;;;;;3.90;3.53;;;16.50;99.90;;;;;;4967058;28;20188;-80
2023/05/11 12:57:25;;;;;;;4.57;4.37;;;16.70;99.90;;;;;;4959792;29;20562;-79
2023/05/11 13:00:09;;;;;;;6.53;6.23;;;16.90;99.90;;;;;;4959501;28;20200;-81
2023/05/11 13:02:43;;;;;;;3.40;3.30;;;16.90;99.90;;;;;;4959485;29;20193;-81
2023/05/11 13:05:11;;;;;;;6.43;6.20;;;17.20;99.90;;;;;;4961247;28;20196;-81
2023/05/11 13:07:37;;;;;;;6.40;6.10;;;17.70;99.90;;;;;;4958116;28;20284;-81
2023/05/11 13:10:03;;;;;;;7.20;6.90;;;17.80;99.90;;;;;;4957564;28;20186;-80
2023/05/11 13:12:29;;;;;;;7.17;6.87;;;17.90;99.90;;;;;;4957059;28;20577;-80
2023/05/11 13:15:06;;;;;;;15.03;14.33;;;18.10;99.90;;;;;;4957313;29;20273;-80
2023/05/11 13:17:34;;;;;;;29.00;27.67;;;18.40;99.90;;;;;;4966529;28;20208;-79
2023/05/11 13:20:26;;;;;;;26.70;25.43;;;18.60;99.90;;;;;;4963419;28;20208;-81
2023/05/11 13:23:12;;;;;;;25.90;24.73;;;18.50;99.90;;;;;;4957805;29;20181;-80
2023/05/11 13:25:44;;;;;;;43.40;41.43;;;18.30;99.90;;;;;;4957719;28;20200;-81
2023/05/11 13:28:10;;;;;;;24.00;22.93;;;18.00;99.90;;;;;;4957130;29;20221;-80
2023/05/11 13:30:36;;;;;;;32.33;30.57;;;17.90;99.90;;;;;;4958857;28;20209;-80
2023/05/11 13:33:02;;;;;;;19.00;17.97;;;17.60;99.90;;;;;;4958589;29;20224;-79
2023/05/11 13:35:28;;;;;;;24.60;23.40;;;17.50;99.90;;;;;;4961789;28;20185;-81
2023/05/11 13:37:54;;;;;;;21.17;20.10;;;17.50;99.90;;;;;;4959273;29;20279;-80
2023/05/11 13:40:19;;;;;;;22.10;21.07;;;17.70;99.90;;;;;;4958774;28;20272;-81
2023/05/11 13:42:45;;;;;;;24.93;23.83;;;17.90;99.90;;;;;;4958330;29;20742;-81
2023/05/11 13:45:11;;;;;;;53.43;50.93;;;18.30;99.90;;;;;;4957818;29;20218;-81
2023/05/11 13:47:37;;;;;;;66.13;62.93;;;18.50;99.90;;;;;;4956791;29;20217;-80
2023/05/11 13:50:03;;;;;;;54.73;51.87;;;18.50;99.90;;;;;;4956894;29;20189;-79
2023/05/11 13:52:29;;;;;;;36.97;34.77;;;18.30;99.90;;;;;;4957052;28;20232;-80
2023/05/11 13:54:55;;;;;;;25.30;23.70;;;18.20;99.90;;;;;;4956450;28;20350;-80
2023/05/11 13:57:21;;;;;;;30.57;28.87;;;18.10;99.90;;;;;;4956429;29;20196;-80
2023/05/11 13:59:47;;;;;;;22.93;21.73;;;18.20;99.90;;;;;;4956899;29;20190;-80
2023/05/11 14:02:13;;;;;;;32.47;30.80;;;18.40;99.90;;;;;;4956835;28;20284;-80
2023/05/11 14:04:40;;;;;;;14.37;13.40;;;18.70;99.90;;;;;;4958857;29;20177;-79
2023/05/11 14:07:06;;;;;;;7.93;7.43;;;18.80;99.90;;;;;;4956787;28;20706;-80
2023/05/11 14:09:32;;;;;;;9.37;8.67;;;18.50;99.90;;;;;;4958489;29;20209;-80
2023/05/11 14:11:58;;;;;;;9.50;8.90;;;18.00;99.90;;;;;;4962620;28;20213;-79
2023/05/11 14:14:24;;;;;;;9.23;8.77;;;18.10;99.90;;;;;;4969822;28;20185;-80
2023/05/11 14:16:50;;;;;;;9.07;8.50;;;17.90;99.90;;;;;;4961488;29;20185;-81
2023/05/11 14:19:16;;;;;;;8.00;7.60;;;17.70;99.90;;;;;;4957329;29;20188;-80
2023/05/11 14:21:42;;;;;;;8.17;7.77;;;17.60;99.90;;;;;;4956390;28;20723;-79
2023/05/11 14:24:07;;;;;;;22.33;21.27;;;17.70;99.90;;;;;;4955795;28;20178;-80
2023/05/11 14:26:33;;;;;;;10.37;9.73;;;17.90;99.90;;;;;;4957881;29;20178;-79
2023/05/11 14:28:59;;;;;;;8.30;7.97;;;18.00;99.90;;;;;;4955580;29;20281;-79
2023/05/11 14:31:25;;;;;;;9.00;8.60;;;18.20;99.90;;;;;;4955592;28;20206;-79
2023/05/11 14:33:50;;;;;;;10.27;9.47;;;18.40;99.90;;;;;;4958175;29;20192;-79
2023/05/11 14:36:16;;;;;;;7.33;7.03;;;18.50;99.90;;;;;;4959507;29;20190;-79
2023/05/11 14:38:42;;;;;;;6.07;5.77;;;18.50;99.90;;;;;;4957458;29;20189;-81
2023/05/11 14:41:08;;;;;;;9.10;8.67;;;18.40;99.90;;;;;;4958139;28;20298;-81
2023/05/11 14:43:34;;;;;;;6.90;6.27;;;18.30;99.90;;;;;;4956297;28;20225;-80
2023/05/11 14:46:01;;;;;;;7.33;6.93;;;17.80;99.90;;;;;;4964970;29;20337;-80
2023/05/11 14:48:26;;;;;;;11.13;10.43;;;17.70;99.90;;;;;;4957218;28;20213;-80
2023/05/11 14:50:52;;;;;;;14.63;14.00;;;18.00;99.90;;;;;;4957149;28;20285;-80
2023/05/11 14:53:18;;;;;;;11.70;11.10;;;18.20;99.90;;;;;;4956501;29;20178;-80
2023/05/11 14:55:44;;;;;;;8.50;8.10;;;18.30;99.90;;;;;;4956973;29;20684;-81
2023/05/11 14:58:10;;;;;;;6.40;6.10;;;18.10;99.90;;;;;;4955800;29;20177;-78
2023/05/11 15:00:39;;;;;;;7.27;6.87;;;17.90;99.90;;;;;;4956651;28;20300;-78
2023/05/11 15:03:09;;;;;;;13.83;13.13;;;17.80;99.90;;;;;;4955644;28;20185;-79
2023/05/11 15:05:39;;;;;;;12.53;11.93;;;17.90;99.90;;;;;;4957062;28;20193;-80
2023/05/11 15:08:05;;;;;;;16.10;15.30;;;18.00;99.90;;;;;;4958814;28;20365;-80
2023/05/11 15:10:31;;;;;;;9.10;8.73;;;18.10;99.90;;;;;;4959450;28;20202;-81
2023/05/11 15:13:03;;;;;;;6.07;5.73;;;18.00;99.90;;;;;;4959483;29;20196;-78
2023/05/11 15:15:30;;;;;;;7.30;6.90;;;17.90;99.90;;;;;;4963300;28;20192;-78
2023/05/11 15:17:55;;;;;;;5.43;5.20;;;17.80;99.90;;;;;;4969459;28;20182;-79
2023/05/11 15:20:21;;;;;;;9.17;8.73;;;17.50;99.90;;;;;;4971763;28;20257;-78
2023/05/11 15:22:47;;;;;;;18.00;17.00;;;17.30;99.90;;;;;;4969545;29;20205;-80
2023/05/11 15:25:13;;;;;;;13.23;12.63;;;17.20;99.90;;;;;;4967693;29;20181;-79
2023/05/11 15:27:38;;;;;;;22.93;21.90;;;17.10;99.90;;;;;;4966258;29;20213;-78
2023/05/11 15:30:05;;;;;;;25.13;24.00;;;17.00;99.90;;;;;;4970279;29;20194;-79
2023/05/11 15:32:30;;;;;;;34.17;32.47;;;16.80;99.90;;;;;;4968520;28;20225;-78
2023/05/11 15:34:57;;;;;;;10.37;9.87;;;16.70;99.90;;;;;;4972405;29;20197;-80
2023/05/11 15:37:23;;;;;;;11.17;10.57;;;16.70;99.90;;;;;;4966780;28;20197;-79
2023/05/11 15:39:49;;;;;;;12.83;12.23;;;16.70;99.90;;;;;;4958797;28;20182;-79
2023/05/11 15:42:15;;;;;;;13.17;12.57;;;16.80;99.90;;;;;;4958881;28;20210;-79